メインページ
METAR-TAF:

METAR-TAF

空港 :

San Joaquín, ボリビア

緯度: 13-04S, 経度: 064-49W, 海抜: 140m

現時点の気象観測

当レポートは47分前の17:00(UTC)に作成
北西の風 4kt
気温 29°C
湿度 74%
気圧 1013 hPa
視程10km以上
高度1700ftの雲は散在している
高度2300ftの雲はほとんどない, 積乱雲.
高度20000ftの千切れ雲あり

METAR: SLJO 171700Z 32004KT 9999 SCT017 FEW023CB BKN200 29/24 Q1013

時間: 13:47 (17:47 UTC)


TAF: 見つかりません

4,000以上の空港の気象観測と天気予報(METAR報とTAF報)

利用可能な観測所は地図上に黄色い丸と赤い丸で示す。

丸の上にカーソルを重ねると観測所名を参照できる。

次にクリックすると気象観測と天気予報を参照できる。

マップの切り替え:黒色「×」印の緑ボタンをクリックして拡大、「-」印の緑ボタンをクリックして縮小、緑色の三角印をクリックして隣りの地図に切り替え


METAR-TAF: